sensor_id;sensor_type;location;lat;lon;timestamp;pressure;altitude;pressure_sealevel;temperature;humidity
49529;BME280;35423;37.320;-121.762;2023-02-22T00:01:46;99183.62;;;27.13;12.00
49529;BME280;35423;37.320;-121.762;2023-02-22T00:04:16;99184.87;;;26.94;12.27
49529;BME280;35423;37.320;-121.762;2023-02-22T00:06:46;99190.15;;;26.61;12.39
49529;BME280;35423;37.320;-121.762;2023-02-22T00:09:12;99188.52;;;26.96;12.60
49529;BME280;35423;37.320;-121.762;2023-02-22T00:11:37;99192.71;;;26.81;12.75
49529;BME280;35423;37.320;-121.762;2023-02-22T00:14:05;99175.94;;;26.99;12.84
49529;BME280;35423;37.320;-121.762;2023-02-22T00:16:32;99177.19;;;27.15;12.93
49529;BME280;35423;37.320;-121.762;2023-02-22T00:18:59;99179.16;;;27.51;12.89
49529;BME280;35423;37.320;-121.762;2023-02-22T00:21:28;99167.44;;;27.44;12.77
49529;BME280;35423;37.320;-121.762;2023-02-22T00:23:54;99169.92;;;27.75;12.73
49529;BME280;35423;37.320;-121.762;2023-02-22T00:26:21;99168.52;;;28.21;12.49
49529;BME280;35423;37.320;-121.762;2023-02-22T00:28:47;99148.23;;;28.08;12.33
49529;BME280;35423;37.320;-121.762;2023-02-22T00:31:11;99165.45;;;27.87;12.07
49529;BME280;35423;37.320;-121.762;2023-02-22T00:33:43;99159.27;;;27.84;11.81
49529;BME280;35423;37.320;-121.762;2023-02-22T00:36:14;99145.98;;;27.72;11.76
49529;BME280;35423;37.320;-121.762;2023-02-22T00:38:41;99137.15;;;27.50;11.77
49529;BME280;35423;37.320;-121.762;2023-02-22T00:41:06;99144.67;;;27.39;11.34
49529;BME280;35423;37.320;-121.762;2023-02-22T00:43:33;99135.95;;;27.43;11.28
49529;BME280;35423;37.320;-121.762;2023-02-22T00:45:59;99139.10;;;26.81;10.90
49529;BME280;35423;37.320;-121.762;2023-02-22T00:48:27;99145.67;;;26.50;10.91
49529;BME280;35423;37.320;-121.762;2023-02-22T00:50:52;99141.16;;;26.56;11.25
49529;BME280;35423;37.320;-121.762;2023-02-22T00:53:17;99140.61;;;26.47;11.65
49529;BME280;35423;37.320;-121.762;2023-02-22T00:55:45;99142.21;;;26.20;12.02
49529;BME280;35423;37.320;-121.762;2023-02-22T00:58:11;99144.48;;;25.45;12.40
49529;BME280;35423;37.320;-121.762;2023-02-22T01:00:38;99141.13;;;25.18;12.97
49529;BME280;35423;37.320;-121.762;2023-02-22T01:03:04;99139.97;;;24.55;13.37
49529;BME280;35423;37.320;-121.762;2023-02-22T01:05:30;99146.85;;;24.00;13.81
49529;BME280;35423;37.320;-121.762;2023-02-22T01:07:58;99133.80;;;24.05;14.22
49529;BME280;35423;37.320;-121.762;2023-02-22T01:10:27;99140.54;;;23.74;14.66
49529;BME280;35423;37.320;-121.762;2023-02-22T01:12:51;99143.10;;;23.16;15.09
49529;BME280;35423;37.320;-121.762;2023-02-22T01:15:21;99139.14;;;22.82;15.44
49529;BME280;35423;37.320;-121.762;2023-02-22T01:17:46;99136.02;;;22.64;15.62
49529;BME280;35423;37.320;-121.762;2023-02-22T01:20:21;99130.78;;;21.90;15.71
49529;BME280;35423;37.320;-121.762;2023-02-22T01:22:49;99146.29;;;21.86;15.97
49529;BME280;35423;37.320;-121.762;2023-02-22T01:25:18;99143.33;;;21.65;16.13
49529;BME280;35423;37.320;-121.762;2023-02-22T01:27:39;99141.88;;;21.58;16.31
49529;BME280;35423;37.320;-121.762;2023-02-22T01:30:10;99147.14;;;21.77;16.48
49529;BME280;35423;37.320;-121.762;2023-02-22T01:32:33;99156.02;;;21.72;16.46
49529;BME280;35423;37.320;-121.762;2023-02-22T01:35:00;99152.88;;;21.45;16.54
49529;BME280;35423;37.320;-121.762;2023-02-22T01:37:26;99151.10;;;21.65;16.58
49529;BME280;35423;37.320;-121.762;2023-02-22T01:39:58;99137.74;;;21.60;16.63
49529;BME280;35423;37.320;-121.762;2023-02-22T01:42:23;99124.32;;;21.07;16.75
49529;BME280;35423;37.320;-121.762;2023-02-22T01:47:17;99116.19;;;20.94;16.80
49529;BME280;35423;37.320;-121.762;2023-02-22T01:49:51;99101.90;;;20.60;17.08
49529;BME280;35423;37.320;-121.762;2023-02-22T01:52:19;99093.73;;;20.87;17.12
49529;BME280;35423;37.320;-121.762;2023-02-22T01:54:45;99092.51;;;20.42;16.94
49529;BME280;35423;37.320;-121.762;2023-02-22T01:57:15;99086.56;;;20.40;17.05
49529;BME280;35423;37.320;-121.762;2023-02-22T01:59:41;99099.84;;;19.93;17.05
49529;BME280;35423;37.320;-121.762;2023-02-22T02:02:08;99104.32;;;19.86;17.16
49529;BME280;35423;37.320;-121.762;2023-02-22T02:04:31;99108.58;;;19.69;17.35
49529;BME280;35423;37.320;-121.762;2023-02-22T02:07:03;99126.08;;;19.67;17.03
49529;BME280;35423;37.320;-121.762;2023-02-22T02:09:33;99121.74;;;19.55;17.12
49529;BME280;35423;37.320;-121.762;2023-02-22T02:11:53;99127.23;;;19.39;17.26
49529;BME280;35423;37.320;-121.762;2023-02-22T02:14:19;99144.21;;;19.22;17.43
49529;BME280;35423;37.320;-121.762;2023-02-22T02:16:50;99154.94;;;19.55;17.58
49529;BME280;35423;37.320;-121.762;2023-02-22T02:19:22;99160.42;;;19.42;17.72
49529;BME280;35423;37.320;-121.762;2023-02-22T02:29:18;99137.35;;;19.28;18.98
49529;BME280;35423;37.320;-121.762;2023-02-22T02:34:04;99113.83;;;18.98;19.51
49529;BME280;35423;37.320;-121.762;2023-02-22T02:36:33;99133.50;;;18.84;19.57
49529;BME280;35423;37.320;-121.762;2023-02-22T02:38:56;99144.12;;;18.58;19.87
49529;BME280;35423;37.320;-121.762;2023-02-22T02:41:23;99144.65;;;18.47;20.18
49529;BME280;35423;37.320;-121.762;2023-02-22T02:43:51;99158.86;;;18.57;20.20
49529;BME280;35423;37.320;-121.762;2023-02-22T02:46:14;99166.87;;;18.51;20.36
49529;BME280;35423;37.320;-121.762;2023-02-22T02:48:41;99159.59;;;18.14;20.50
49529;BME280;35423;37.320;-121.762;2023-02-22T02:51:06;99162.73;;;18.19;20.43
49529;BME280;35423;37.320;-121.762;2023-02-22T02:53:34;99145.37;;;18.36;20.48
49529;BME280;35423;37.320;-121.762;2023-02-22T02:55:58;99150.94;;;18.35;20.40
49529;BME280;35423;37.320;-121.762;2023-02-22T02:58:23;99152.06;;;18.14;20.43
49529;BME280;35423;37.320;-121.762;2023-02-22T03:00:53;99157.99;;;18.10;20.41
49529;BME280;35423;37.320;-121.762;2023-02-22T03:03:32;99157.44;;;18.32;20.47
49529;BME280;35423;37.320;-121.762;2023-02-22T03:05:58;99157.41;;;18.35;20.46
49529;BME280;35423;37.320;-121.762;2023-02-22T03:08:15;99165.27;;;18.56;20.54
49529;BME280;35423;37.320;-121.762;2023-02-22T03:10:45;99158.26;;;18.32;20.52
49529;BME280;35423;37.320;-121.762;2023-02-22T03:13:12;99155.81;;;18.27;20.57
49529;BME280;35423;37.320;-121.762;2023-02-22T03:15:40;99165.19;;;17.97;20.81
49529;BME280;35423;37.320;-121.762;2023-02-22T03:18:03;99172.81;;;18.15;20.90
49529;BME280;35423;37.320;-121.762;2023-02-22T03:20:28;99169.23;;;17.67;21.15
49529;BME280;35423;37.320;-121.762;2023-02-22T03:22:52;99177.68;;;17.55;21.41
49529;BME280;35423;37.320;-121.762;2023-02-22T03:25:23;99176.65;;;17.58;21.45
49529;BME280;35423;37.320;-121.762;2023-02-22T03:27:52;99162.89;;;17.61;21.59
49529;BME280;35423;37.320;-121.762;2023-02-22T03:30:21;99156.08;;;17.65;21.52
49529;BME280;35423;37.320;-121.762;2023-02-22T03:32:46;99164.14;;;17.59;21.43
49529;BME280;35423;37.320;-121.762;2023-02-22T03:35:10;99156.25;;;17.52;21.35
49529;BME280;35423;37.320;-121.762;2023-02-22T03:37:44;99155.16;;;17.50;21.22
49529;BME280;35423;37.320;-121.762;2023-02-22T03:40:09;99157.84;;;17.37;21.23
49529;BME280;35423;37.320;-121.762;2023-02-22T03:42:35;99164.06;;;17.38;21.16
49529;BME280;35423;37.320;-121.762;2023-02-22T03:45:03;99159.46;;;17.04;21.13
49529;BME280;35423;37.320;-121.762;2023-02-22T03:47:31;99163.32;;;17.27;21.11
49529;BME280;35423;37.320;-121.762;2023-02-22T03:49:56;99165.05;;;17.14;21.26
49529;BME280;35423;37.320;-121.762;2023-02-22T03:52:19;99158.18;;;17.12;21.38
49529;BME280;35423;37.320;-121.762;2023-02-22T03:54:43;99162.18;;;17.04;21.49
49529;BME280;35423;37.320;-121.762;2023-02-22T03:57:14;99176.23;;;17.00;21.62
49529;BME280;35423;37.320;-121.762;2023-02-22T03:59:38;99177.26;;;17.00;21.69
49529;BME280;35423;37.320;-121.762;2023-02-22T04:02:02;99184.59;;;17.04;21.80
49529;BME280;35423;37.320;-121.762;2023-02-22T04:04:29;99184.45;;;17.46;21.89
49529;BME280;35423;37.320;-121.762;2023-02-22T04:06:56;99190.15;;;17.00;21.91
49529;BME280;35423;37.320;-121.762;2023-02-22T04:09:23;99192.92;;;17.22;21.90
49529;BME280;35423;37.320;-121.762;2023-02-22T04:11:50;99188.54;;;17.15;21.98
49529;BME280;35423;37.320;-121.762;2023-02-22T04:14:18;99184.53;;;17.24;21.88
49529;BME280;35423;37.320;-121.762;2023-02-22T04:16:43;99188.37;;;17.09;21.97
49529;BME280;35423;37.320;-121.762;2023-02-22T04:19:11;99188.47;;;16.99;22.05
49529;BME280;35423;37.320;-121.762;2023-02-22T04:21:36;99195.78;;;17.35;22.19
49529;BME280;35423;37.320;-121.762;2023-02-22T04:24:03;99197.18;;;17.06;22.25
49529;BME280;35423;37.320;-121.762;2023-02-22T04:26:30;99196.61;;;17.20;22.34
49529;BME280;35423;37.320;-121.762;2023-02-22T04:28:56;99193.08;;;17.00;22.41
49529;BME280;35423;37.320;-121.762;2023-02-22T04:31:25;99192.99;;;16.86;22.39
49529;BME280;35423;37.320;-121.762;2023-02-22T04:33:51;99189.96;;;16.89;22.38
49529;BME280;35423;37.320;-121.762;2023-02-22T04:36:17;99186.10;;;17.16;22.33
49529;BME280;35423;37.320;-121.762;2023-02-22T04:38:45;99178.14;;;16.96;22.30
49529;BME280;35423;37.320;-121.762;2023-02-22T04:41:11;99180.38;;;16.92;22.39
49529;BME280;35423;37.320;-121.762;2023-02-22T04:43:41;99181.06;;;17.12;22.46
49529;BME280;35423;37.320;-121.762;2023-02-22T04:46:08;99181.26;;;17.02;22.57
49529;BME280;35423;37.320;-121.762;2023-02-22T04:48:35;99174.89;;;17.00;22.56
49529;BME280;35423;37.320;-121.762;2023-02-22T04:51:03;99175.83;;;17.03;22.63
49529;BME280;35423;37.320;-121.762;2023-02-22T04:53:30;99181.92;;;16.82;22.63
49529;BME280;35423;37.320;-121.762;2023-02-22T04:55:57;99180.79;;;16.96;22.54
49529;BME280;35423;37.320;-121.762;2023-02-22T04:58:23;99185.30;;;17.07;22.44
49529;BME280;35423;37.320;-121.762;2023-02-22T05:00:50;99194.52;;;16.95;22.45
49529;BME280;35423;37.320;-121.762;2023-02-22T05:03:16;99196.95;;;16.88;22.41
49529;BME280;35423;37.320;-121.762;2023-02-22T05:05:44;99193.22;;;16.96;22.36
49529;BME280;35423;37.320;-121.762;2023-02-22T05:08:11;99190.32;;;16.86;22.39
49529;BME280;35423;37.320;-121.762;2023-02-22T05:10:34;99196.98;;;16.81;22.40
49529;BME280;35423;37.320;-121.762;2023-02-22T05:13:07;99190.99;;;16.79;22.25
49529;BME280;35423;37.320;-121.762;2023-02-22T05:15:34;99190.53;;;16.52;22.28
49529;BME280;35423;37.320;-121.762;2023-02-22T05:18:02;99182.60;;;16.60;22.23
49529;BME280;35423;37.320;-121.762;2023-02-22T05:20:33;99184.57;;;16.78;22.26
49529;BME280;35423;37.320;-121.762;2023-02-22T05:22:57;99183.67;;;16.44;22.21
49529;BME280;35423;37.320;-121.762;2023-02-22T05:25:23;99185.66;;;16.37;22.05
49529;BME280;35423;37.320;-121.762;2023-02-22T05:27:51;99195.34;;;16.62;21.98
49529;BME280;35423;37.320;-121.762;2023-02-22T05:30:17;99202.64;;;16.51;21.99
49529;BME280;35423;37.320;-121.762;2023-02-22T05:32:42;99197.87;;;16.21;21.99
49529;BME280;35423;37.320;-121.762;2023-02-22T05:35:09;99205.03;;;16.14;22.02
49529;BME280;35423;37.320;-121.762;2023-02-22T05:37:36;99195.86;;;16.61;22.11
49529;BME280;35423;37.320;-121.762;2023-02-22T05:40:05;99193.25;;;16.29;22.38
49529;BME280;35423;37.320;-121.762;2023-02-22T05:42:25;99196.27;;;15.97;22.58
49529;BME280;35423;37.320;-121.762;2023-02-22T05:44:53;99198.33;;;15.90;22.77
49529;BME280;35423;37.320;-121.762;2023-02-22T05:47:19;99199.50;;;16.12;23.09
49529;BME280;35423;37.320;-121.762;2023-02-22T05:49:47;99196.18;;;15.92;23.28
49529;BME280;35423;37.320;-121.762;2023-02-22T05:52:23;99194.79;;;15.87;23.34
49529;BME280;35423;37.320;-121.762;2023-02-22T05:54:42;99206.32;;;16.04;23.42
49529;BME280;35423;37.320;-121.762;2023-02-22T05:57:07;99202.51;;;15.82;23.46
49529;BME280;35423;37.320;-121.762;2023-02-22T05:59:35;99198.26;;;15.57;23.63
49529;BME280;35423;37.320;-121.762;2023-02-22T06:02:02;99191.37;;;15.88;23.55
49529;BME280;35423;37.320;-121.762;2023-02-22T06:04:27;99181.58;;;16.00;23.70
49529;BME280;35423;37.320;-121.762;2023-02-22T06:06:57;99172.12;;;15.77;23.71
49529;BME280;35423;37.320;-121.762;2023-02-22T06:09:21;99174.26;;;15.96;23.80
49529;BME280;35423;37.320;-121.762;2023-02-22T06:11:54;99180.37;;;15.82;23.81
49529;BME280;35423;37.320;-121.762;2023-02-22T06:14:25;99178.16;;;15.51;23.91
49529;BME280;35423;37.320;-121.762;2023-02-22T06:16:55;99179.57;;;15.71;24.00
49529;BME280;35423;37.320;-121.762;2023-02-22T06:19:20;99181.29;;;15.70;23.85
49529;BME280;35423;37.320;-121.762;2023-02-22T06:21:49;99186.52;;;15.69;23.32
49529;BME280;35423;37.320;-121.762;2023-02-22T06:24:13;99183.98;;;15.70;22.51
49529;BME280;35423;37.320;-121.762;2023-02-22T06:26:39;99194.99;;;15.62;22.27
49529;BME280;35423;37.320;-121.762;2023-02-22T06:29:04;99194.97;;;15.41;22.07
49529;BME280;35423;37.320;-121.762;2023-02-22T06:31:29;99194.16;;;15.72;21.81
49529;BME280;35423;37.320;-121.762;2023-02-22T06:33:57;99188.60;;;15.64;21.72
49529;BME280;35423;37.320;-121.762;2023-02-22T06:36:25;99192.82;;;15.70;21.31
49529;BME280;35423;37.320;-121.762;2023-02-22T06:38:51;99179.73;;;15.42;21.28
49529;BME280;35423;37.320;-121.762;2023-02-22T06:41:19;99179.24;;;15.56;21.25
49529;BME280;35423;37.320;-121.762;2023-02-22T06:43:47;99182.78;;;15.52;21.22
49529;BME280;35423;37.320;-121.762;2023-02-22T06:46:14;99186.61;;;15.78;21.14
49529;BME280;35423;37.320;-121.762;2023-02-22T06:48:40;99192.32;;;15.48;21.18
49529;BME280;35423;37.320;-121.762;2023-02-22T06:51:08;99188.84;;;15.45;21.17
49529;BME280;35423;37.320;-121.762;2023-02-22T06:53:32;99187.23;;;15.37;21.22
49529;BME280;35423;37.320;-121.762;2023-02-22T06:56:01;99183.51;;;15.65;21.24
49529;BME280;35423;37.320;-121.762;2023-02-22T06:58:28;99185.17;;;15.22;21.39
49529;BME280;35423;37.320;-121.762;2023-02-22T07:00:55;99188.43;;;15.22;21.46
49529;BME280;35423;37.320;-121.762;2023-02-22T07:03:27;99188.97;;;15.13;21.55
49529;BME280;35423;37.320;-121.762;2023-02-22T07:05:57;99186.35;;;15.19;21.49
49529;BME280;35423;37.320;-121.762;2023-02-22T07:08:25;99180.22;;;15.46;21.41
49529;BME280;35423;37.320;-121.762;2023-02-22T07:10:51;99176.54;;;15.17;21.46
49529;BME280;35423;37.320;-121.762;2023-02-22T07:13:23;99178.44;;;15.34;21.50
49529;BME280;35423;37.320;-121.762;2023-02-22T07:15:50;99177.43;;;15.06;21.48
49529;BME280;35423;37.320;-121.762;2023-02-22T07:18:17;99179.33;;;14.97;21.56
49529;BME280;35423;37.320;-121.762;2023-02-22T07:20:46;99175.43;;;15.18;21.60
49529;BME280;35423;37.320;-121.762;2023-02-22T07:23:14;99176.05;;;14.96;21.56
49529;BME280;35423;37.320;-121.762;2023-02-22T07:25:39;99175.81;;;14.89;21.63
49529;BME280;35423;37.320;-121.762;2023-02-22T07:28:05;99172.96;;;14.89;21.62
49529;BME280;35423;37.320;-121.762;2023-02-22T07:30:32;99173.60;;;14.83;21.69
49529;BME280;35423;37.320;-121.762;2023-02-22T07:33:04;99174.32;;;15.29;21.73
49529;BME280;35423;37.320;-121.762;2023-02-22T07:35:29;99180.63;;;14.99;21.83
49529;BME280;35423;37.320;-121.762;2023-02-22T07:37:56;99179.58;;;15.00;21.84
49529;BME280;35423;37.320;-121.762;2023-02-22T07:40:24;99171.71;;;14.99;21.86
49529;BME280;35423;37.320;-121.762;2023-02-22T07:42:54;99179.71;;;14.96;21.92
49529;BME280;35423;37.320;-121.762;2023-02-22T07:45:15;99172.79;;;14.69;21.99
49529;BME280;35423;37.320;-121.762;2023-02-22T07:47:45;99166.67;;;14.76;21.93
49529;BME280;35423;37.320;-121.762;2023-02-22T07:50:10;99165.28;;;14.91;21.95
49529;BME280;35423;37.320;-121.762;2023-02-22T07:52:45;99164.56;;;15.01;22.06
49529;BME280;35423;37.320;-121.762;2023-02-22T07:55:12;99160.61;;;14.75;22.11
49529;BME280;35423;37.320;-121.762;2023-02-22T07:57:38;99159.34;;;14.69;22.15
49529;BME280;35423;37.320;-121.762;2023-02-22T08:00:09;99158.85;;;14.81;22.22
49529;BME280;35423;37.320;-121.762;2023-02-22T08:02:32;99160.09;;;14.44;22.07
49529;BME280;35423;37.320;-121.762;2023-02-22T08:05:00;99154.58;;;14.70;21.98
49529;BME280;35423;37.320;-121.762;2023-02-22T08:07:25;99148.26;;;14.67;22.01
49529;BME280;35423;37.320;-121.762;2023-02-22T08:09:51;99148.22;;;14.88;22.03
49529;BME280;35423;37.320;-121.762;2023-02-22T08:12:18;99149.12;;;14.82;22.08
49529;BME280;35423;37.320;-121.762;2023-02-22T08:14:44;99151.02;;;14.62;22.07
49529;BME280;35423;37.320;-121.762;2023-02-22T08:17:09;99151.88;;;14.60;22.10
49529;BME280;35423;37.320;-121.762;2023-02-22T08:19:35;99152.79;;;14.35;22.11
49529;BME280;35423;37.320;-121.762;2023-02-22T08:21:59;99148.72;;;14.76;22.18
49529;BME280;35423;37.320;-121.762;2023-02-22T08:24:25;99148.12;;;14.60;22.19
49529;BME280;35423;37.320;-121.762;2023-02-22T08:26:51;99148.42;;;14.28;22.21
49529;BME280;35423;37.320;-121.762;2023-02-22T08:29:19;99142.82;;;14.57;22.17
49529;BME280;35423;37.320;-121.762;2023-02-22T08:31:50;99144.53;;;14.74;22.18
49529;BME280;35423;37.320;-121.762;2023-02-22T08:34:19;99140.11;;;14.42;22.20
49529;BME280;35423;37.320;-121.762;2023-02-22T08:36:44;99135.74;;;14.40;22.21
49529;BME280;35423;37.320;-121.762;2023-02-22T08:39:11;99134.81;;;14.60;22.12
49529;BME280;35423;37.320;-121.762;2023-02-22T08:41:39;99136.94;;;14.34;22.14
49529;BME280;35423;37.320;-121.762;2023-02-22T08:44:07;99141.05;;;14.33;22.12
49529;BME280;35423;37.320;-121.762;2023-02-22T08:46:34;99141.87;;;14.55;22.08
49529;BME280;35423;37.320;-121.762;2023-02-22T08:49:01;99143.09;;;14.49;22.05
49529;BME280;35423;37.320;-121.762;2023-02-22T08:51:26;99140.15;;;14.47;22.08
49529;BME280;35423;37.320;-121.762;2023-02-22T08:53:54;99139.44;;;14.39;22.14
49529;BME280;35423;37.320;-121.762;2023-02-22T08:56:19;99138.00;;;14.32;22.25
49529;BME280;35423;37.320;-121.762;2023-02-22T08:58:46;99140.80;;;14.13;22.30
49529;BME280;35423;37.320;-121.762;2023-02-22T09:01:13;99138.18;;;14.39;22.32
49529;BME280;35423;37.320;-121.762;2023-02-22T09:03:41;99143.38;;;14.42;22.32
49529;BME280;35423;37.320;-121.762;2023-02-22T09:06:07;99141.99;;;14.41;22.36
49529;BME280;35423;37.320;-121.762;2023-02-22T09:08:32;99139.64;;;14.42;22.39
49529;BME280;35423;37.320;-121.762;2023-02-22T09:11:00;99139.85;;;14.40;22.46
49529;BME280;35423;37.320;-121.762;2023-02-22T09:13:25;99139.54;;;14.42;22.51
49529;BME280;35423;37.320;-121.762;2023-02-22T09:15:53;99144.07;;;14.64;22.56
49529;BME280;35423;37.320;-121.762;2023-02-22T09:18:24;99142.90;;;14.46;22.57
49529;BME280;35423;37.320;-121.762;2023-02-22T09:20:52;99145.49;;;14.46;22.61
49529;BME280;35423;37.320;-121.762;2023-02-22T09:23:19;99148.36;;;14.40;22.69
49529;BME280;35423;37.320;-121.762;2023-02-22T09:25:45;99147.69;;;14.61;22.70
49529;BME280;35423;37.320;-121.762;2023-02-22T09:28:12;99141.23;;;14.40;22.68
49529;BME280;35423;37.320;-121.762;2023-02-22T09:30:38;99144.89;;;14.44;22.59
49529;BME280;35423;37.320;-121.762;2023-02-22T09:33:08;99147.57;;;14.45;22.46
49529;BME280;35423;37.320;-121.762;2023-02-22T09:35:35;99150.69;;;14.22;22.36
49529;BME280;35423;37.320;-121.762;2023-02-22T09:38:05;99155.68;;;14.43;22.28
49529;BME280;35423;37.320;-121.762;2023-02-22T09:40:32;99156.82;;;14.41;22.22
49529;BME280;35423;37.320;-121.762;2023-02-22T09:43:08;99154.96;;;14.42;22.21
49529;BME280;35423;37.320;-121.762;2023-02-22T09:45:25;99158.18;;;14.42;22.16
49529;BME280;35423;37.320;-121.762;2023-02-22T09:47:48;99165.05;;;14.40;22.19
49529;BME280;35423;37.320;-121.762;2023-02-22T09:50:13;99166.22;;;14.44;22.15
49529;BME280;35423;37.320;-121.762;2023-02-22T09:52:43;99160.23;;;14.42;22.16
49529;BME280;35423;37.320;-121.762;2023-02-22T09:55:15;99162.26;;;14.41;22.35
49529;BME280;35423;37.320;-121.762;2023-02-22T09:57:40;99175.87;;;14.38;22.78
49529;BME280;35423;37.320;-121.762;2023-02-22T10:00:05;99174.70;;;14.35;22.76
49529;BME280;35423;37.320;-121.762;2023-02-22T10:02:32;99168.78;;;14.35;22.70
49529;BME280;35423;37.320;-121.762;2023-02-22T10:04:59;99164.17;;;14.36;22.64
49529;BME280;35423;37.320;-121.762;2023-02-22T10:07:31;99167.55;;;14.29;22.80
49529;BME280;35423;37.320;-121.762;2023-02-22T10:09:57;99169.56;;;14.26;22.97
49529;BME280;35423;37.320;-121.762;2023-02-22T10:12:29;99169.31;;;14.46;23.05
49529;BME280;35423;37.320;-121.762;2023-02-22T10:15:08;99165.32;;;14.23;23.02
49529;BME280;35423;37.320;-121.762;2023-02-22T10:17:32;99172.63;;;14.22;22.96
49529;BME280;35423;37.320;-121.762;2023-02-22T10:20:02;99166.36;;;14.18;22.80
49529;BME280;35423;37.320;-121.762;2023-02-22T10:22:30;99164.73;;;14.20;22.71
49529;BME280;35423;37.320;-121.762;2023-02-22T10:24:53;99163.76;;;14.13;22.73
49529;BME280;35423;37.320;-121.762;2023-02-22T10:27:15;99172.54;;;13.83;22.80
49529;BME280;35423;37.320;-121.762;2023-02-22T10:29:39;99179.22;;;14.00;22.86
49529;BME280;35423;37.320;-121.762;2023-02-22T10:32:05;99177.29;;;14.19;22.90
49529;BME280;35423;37.320;-121.762;2023-02-22T10:34:32;99176.50;;;14.16;22.82
49529;BME280;35423;37.320;-121.762;2023-02-22T10:37:02;99175.43;;;13.87;22.67
49529;BME280;35423;37.320;-121.762;2023-02-22T10:39:27;99171.54;;;14.02;22.57
49529;BME280;35423;37.320;-121.762;2023-02-22T10:41:50;99169.44;;;13.69;22.36
49529;BME280;35423;37.320;-121.762;2023-02-22T10:44:12;99170.60;;;13.64;22.09
49529;BME280;35423;37.320;-121.762;2023-02-22T10:46:41;99175.14;;;13.78;22.00
49529;BME280;35423;37.320;-121.762;2023-02-22T10:49:06;99172.64;;;13.65;21.96
49529;BME280;35423;37.320;-121.762;2023-02-22T10:51:38;99163.12;;;13.55;21.98
49529;BME280;35423;37.320;-121.762;2023-02-22T10:56:32;99153.45;;;13.58;21.99
49529;BME280;35423;37.320;-121.762;2023-02-22T10:59:08;99155.91;;;13.49;22.06
49529;BME280;35423;37.320;-121.762;2023-02-22T11:01:41;99153.40;;;12.92;22.21
49529;BME280;35423;37.320;-121.762;2023-02-22T11:04:10;99152.94;;;13.23;22.16
49529;BME280;35423;37.320;-121.762;2023-02-22T11:06:37;99154.70;;;13.18;22.19
49529;BME280;35423;37.320;-121.762;2023-02-22T11:09:09;99147.54;;;13.13;22.24
49529;BME280;35423;37.320;-121.762;2023-02-22T11:11:28;99153.22;;;13.20;22.19
49529;BME280;35423;37.320;-121.762;2023-02-22T11:13:56;99151.59;;;13.47;22.15
49529;BME280;35423;37.320;-121.762;2023-02-22T11:16:27;99150.37;;;13.50;22.22
49529;BME280;35423;37.320;-121.762;2023-02-22T11:18:48;99159.61;;;13.50;22.23
49529;BME280;35423;37.320;-121.762;2023-02-22T11:21:12;99155.91;;;13.58;22.13
49529;BME280;35423;37.320;-121.762;2023-02-22T11:23:40;99157.51;;;13.31;22.11
49529;BME280;35423;37.320;-121.762;2023-02-22T11:26:08;99159.01;;;13.54;22.13
49529;BME280;35423;37.320;-121.762;2023-02-22T11:28:33;99155.82;;;13.59;22.10
49529;BME280;35423;37.320;-121.762;2023-02-22T11:31:09;99151.39;;;13.63;22.14
49529;BME280;35423;37.320;-121.762;2023-02-22T11:33:27;99150.17;;;13.63;22.11
49529;BME280;35423;37.320;-121.762;2023-02-22T11:35:53;99148.85;;;13.47;22.13
49529;BME280;35423;37.320;-121.762;2023-02-22T11:38:20;99156.25;;;13.50;22.16
49529;BME280;35423;37.320;-121.762;2023-02-22T11:40:46;99156.19;;;13.47;22.25
49529;BME280;35423;37.320;-121.762;2023-02-22T11:43:15;99147.55;;;13.49;22.29
49529;BME280;35423;37.320;-121.762;2023-02-22T11:45:36;99143.35;;;13.49;22.35
49529;BME280;35423;37.320;-121.762;2023-02-22T11:48:03;99144.76;;;13.24;22.49
49529;BME280;35423;37.320;-121.762;2023-02-22T11:50:32;99149.19;;;13.48;22.52
49529;BME280;35423;37.320;-121.762;2023-02-22T11:53:13;99150.57;;;13.51;22.44
49529;BME280;35423;37.320;-121.762;2023-02-22T11:55:28;99156.50;;;13.84;22.30
49529;BME280;35423;37.320;-121.762;2023-02-22T11:58:00;99150.23;;;13.54;22.37
49529;BME280;35423;37.320;-121.762;2023-02-22T12:00:24;99155.31;;;13.54;22.46
49529;BME280;35423;37.320;-121.762;2023-02-22T12:02:52;99154.80;;;13.59;22.45
49529;BME280;35423;37.320;-121.762;2023-02-22T12:05:15;99154.79;;;13.83;22.75
49529;BME280;35423;37.320;-121.762;2023-02-22T12:07:48;99153.97;;;13.86;23.19
49529;BME280;35423;37.320;-121.762;2023-02-22T12:10:13;99156.79;;;13.57;23.33
49529;BME280;35423;37.320;-121.762;2023-02-22T12:12:36;99155.29;;;13.81;23.41
49529;BME280;35423;37.320;-121.762;2023-02-22T12:14:59;99157.26;;;13.58;23.37
49529;BME280;35423;37.320;-121.762;2023-02-22T12:17:32;99157.29;;;13.90;23.56
49529;BME280;35423;37.320;-121.762;2023-02-22T12:19:49;99163.39;;;13.82;23.92
49529;BME280;35423;37.320;-121.762;2023-02-22T12:22:17;99166.08;;;13.55;24.03
49529;BME280;35423;37.320;-121.762;2023-02-22T12:24:41;99160.16;;;13.56;24.18
49529;BME280;35423;37.320;-121.762;2023-02-22T12:27:08;99168.07;;;13.86;24.40
49529;BME280;35423;37.320;-121.762;2023-02-22T12:29:36;99175.53;;;13.57;24.68
49529;BME280;35423;37.320;-121.762;2023-02-22T12:32:04;99176.68;;;13.55;24.83
49529;BME280;35423;37.320;-121.762;2023-02-22T12:34:30;99178.82;;;13.75;24.99
49529;BME280;35423;37.320;-121.762;2023-02-22T12:37:04;99176.11;;;13.79;25.05
49529;BME280;35423;37.320;-121.762;2023-02-22T12:39:34;99176.82;;;13.71;25.12
49529;BME280;35423;37.320;-121.762;2023-02-22T12:41:55;99182.05;;;13.45;25.27
49529;BME280;35423;37.320;-121.762;2023-02-22T12:44:22;99181.38;;;13.53;25.15